<?xml version="1.0" encoding="UTF-8" standalone="no" ?>
<gpx xmlns="http://www.topografix.com/GPX/1/1" xmlns:xsi="http://www.w3.org/2001/XMLSchema-instance" xsi:schemaLocation="http://www.topografix.com/GPX/1/1 http://www.topografix.com/GPX/1/1/gpx.xsd" version="1.1" creator="VisuGPX - https://www.visugpx.com">
  <metadata>
    <name>Costelongue Lançon</name>
    <desc><![CDATA[Rando du 20 mai pour Grans Randonnée (Babette)]]></desc>
  </metadata>
  <trk>
    <name><![CDATA[Costelongue Lançon]]></name>
    <trkseg>
      <trkpt lat="43.59092" lon="5.12479">
        <ele>91.3</ele>
        <time>2020-05-19T05:26:52Z</time>
      </trkpt>
      <trkpt lat="43.59092" lon="5.1248">
        <ele>91.3</ele>
        <time>2020-05-19T05:26:53Z</time>
      </trkpt>
      <trkpt lat="43.59088" lon="5.12501">
        <ele>92.2</ele>
        <time>2020-05-19T05:27:13Z</time>
      </trkpt>
      <trkpt lat="43.59088" lon="5.1253">
        <ele>94.3</ele>
        <time>2020-05-19T05:27:45Z</time>
      </trkpt>
      <trkpt lat="43.5909" lon="5.12532">
        <ele>94.5</ele>
        <time>2020-05-19T05:28:11Z</time>
      </trkpt>
      <trkpt lat="43.59114" lon="5.1256">
        <ele>97.5</ele>
        <time>2020-05-19T05:28:39Z</time>
      </trkpt>
      <trkpt lat="43.59141" lon="5.12581">
        <ele>99.9</ele>
        <time>2020-05-19T05:29:09Z</time>
      </trkpt>
      <trkpt lat="43.59157" lon="5.126">
        <ele>101.5</ele>
        <time>2020-05-19T05:29:34Z</time>
      </trkpt>
      <trkpt lat="43.59161" lon="5.12602">
        <ele>101.7</ele>
        <time>2020-05-19T05:29:39Z</time>
      </trkpt>
      <trkpt lat="43.5916" lon="5.12602">
        <ele>101.7</ele>
        <time>2020-05-19T05:29:58Z</time>
      </trkpt>
      <trkpt lat="43.59161" lon="5.126">
        <ele>101.6</ele>
        <time>2020-05-19T05:30:41Z</time>
      </trkpt>
      <trkpt lat="43.59162" lon="5.12602">
        <ele>101.8</ele>
        <time>2020-05-19T05:30:48Z</time>
      </trkpt>
      <trkpt lat="43.59171" lon="5.12626">
        <ele>103.2</ele>
        <time>2020-05-19T05:31:15Z</time>
      </trkpt>
      <trkpt lat="43.59177" lon="5.12655">
        <ele>104.7</ele>
        <time>2020-05-19T05:31:39Z</time>
      </trkpt>
      <trkpt lat="43.59179" lon="5.12658">
        <ele>104.9</ele>
        <time>2020-05-19T05:31:59Z</time>
      </trkpt>
      <trkpt lat="43.59196" lon="5.12678">
        <ele>105.9</ele>
        <time>2020-05-19T05:32:21Z</time>
      </trkpt>
      <trkpt lat="43.59187" lon="5.12699">
        <ele>106.3</ele>
        <time>2020-05-19T05:32:46Z</time>
      </trkpt>
      <trkpt lat="43.59183" lon="5.12728">
        <ele>107</ele>
        <time>2020-05-19T05:33:10Z</time>
      </trkpt>
      <trkpt lat="43.59204" lon="5.12727">
        <ele>106.8</ele>
        <time>2020-05-19T05:33:40Z</time>
      </trkpt>
      <trkpt lat="43.59205" lon="5.12722">
        <ele>106.7</ele>
        <time>2020-05-19T05:33:45Z</time>
      </trkpt>
      <trkpt lat="43.5921" lon="5.12704">
        <ele>106.5</ele>
        <time>2020-05-19T05:34:14Z</time>
      </trkpt>
      <trkpt lat="43.59207" lon="5.12707">
        <ele>106.5</ele>
        <time>2020-05-19T05:34:22Z</time>
      </trkpt>
      <trkpt lat="43.59203" lon="5.12737">
        <ele>106.9</ele>
        <time>2020-05-19T05:34:47Z</time>
      </trkpt>
      <trkpt lat="43.59204" lon="5.12759">
        <ele>106.6</ele>
        <time>2020-05-19T05:35:16Z</time>
      </trkpt>
      <trkpt lat="43.59205" lon="5.12761">
        <ele>106.4</ele>
        <time>2020-05-19T05:35:40Z</time>
      </trkpt>
      <trkpt lat="43.59229" lon="5.12768">
        <ele>105</ele>
        <time>2020-05-19T05:36:09Z</time>
      </trkpt>
      <trkpt lat="43.5923" lon="5.12772">
        <ele>104.5</ele>
        <time>2020-05-19T05:36:37Z</time>
      </trkpt>
      <trkpt lat="43.59231" lon="5.12771">
        <ele>104.6</ele>
        <time>2020-05-19T05:37:12Z</time>
      </trkpt>
      <trkpt lat="43.59271" lon="5.12756">
        <ele>101.4</ele>
        <time>2020-05-19T05:37:40Z</time>
      </trkpt>
      <trkpt lat="43.5929" lon="5.1275">
        <ele>98.4</ele>
        <time>2020-05-19T05:37:54Z</time>
      </trkpt>
      <trkpt lat="43.59307" lon="5.1271">
        <ele>95.8</ele>
        <time>2020-05-19T05:38:24Z</time>
      </trkpt>
      <trkpt lat="43.59295" lon="5.12647">
        <ele>98.8</ele>
        <time>2020-05-19T05:39:00Z</time>
      </trkpt>
      <trkpt lat="43.59282" lon="5.12601">
        <ele>100.4</ele>
        <time>2020-05-19T05:39:32Z</time>
      </trkpt>
      <trkpt lat="43.59282" lon="5.12602">
        <ele>100.3</ele>
        <time>2020-05-19T05:39:36Z</time>
      </trkpt>
      <trkpt lat="43.59294" lon="5.12622">
        <ele>98.9</ele>
        <time>2020-05-19T05:40:01Z</time>
      </trkpt>
      <trkpt lat="43.5929" lon="5.12631">
        <ele>99.5</ele>
        <time>2020-05-19T05:40:25Z</time>
      </trkpt>
      <trkpt lat="43.59278" lon="5.12646">
        <ele>101.6</ele>
        <time>2020-05-19T05:40:40Z</time>
      </trkpt>
      <trkpt lat="43.59281" lon="5.1266">
        <ele>101.4</ele>
        <time>2020-05-19T05:40:59Z</time>
      </trkpt>
      <trkpt lat="43.59288" lon="5.12687">
        <ele>99.8</ele>
        <time>2020-05-19T05:41:33Z</time>
      </trkpt>
      <trkpt lat="43.59289" lon="5.12689">
        <ele>99.6</ele>
        <time>2020-05-19T05:42:12Z</time>
      </trkpt>
      <trkpt lat="43.59292" lon="5.12698">
        <ele>98.9</ele>
        <time>2020-05-19T05:42:51Z</time>
      </trkpt>
      <trkpt lat="43.59292" lon="5.12698">
        <ele>98.9</ele>
        <time>2020-05-19T05:43:56Z</time>
      </trkpt>
      <trkpt lat="43.59288" lon="5.12695">
        <ele>99.6</ele>
        <time>2020-05-19T05:47:35Z</time>
      </trkpt>
      <trkpt lat="43.59285" lon="5.12692">
        <ele>100.3</ele>
        <time>2020-05-19T05:47:43Z</time>
      </trkpt>
      <trkpt lat="43.59268" lon="5.1269">
        <ele>103.3</ele>
        <time>2020-05-19T05:47:59Z</time>
      </trkpt>
      <trkpt lat="43.59257" lon="5.12698">
        <ele>105.3</ele>
        <time>2020-05-19T05:48:15Z</time>
      </trkpt>
      <trkpt lat="43.59241" lon="5.12717">
        <ele>106.4</ele>
        <time>2020-05-19T05:48:42Z</time>
      </trkpt>
      <trkpt lat="43.59229" lon="5.12723">
        <ele>106.5</ele>
        <time>2020-05-19T05:49:11Z</time>
      </trkpt>
      <trkpt lat="43.59225" lon="5.12722">
        <ele>106.5</ele>
        <time>2020-05-19T05:49:27Z</time>
      </trkpt>
      <trkpt lat="43.59215" lon="5.12708">
        <ele>106.5</ele>
        <time>2020-05-19T05:49:49Z</time>
      </trkpt>
      <trkpt lat="43.59215" lon="5.12705">
        <ele>106.5</ele>
        <time>2020-05-19T05:49:55Z</time>
      </trkpt>
      <trkpt lat="43.59218" lon="5.12687">
        <ele>106.4</ele>
        <time>2020-05-19T05:50:16Z</time>
      </trkpt>
      <trkpt lat="43.5924" lon="5.12658">
        <ele>106.4</ele>
        <time>2020-05-19T05:50:43Z</time>
      </trkpt>
      <trkpt lat="43.59262" lon="5.12644">
        <ele>104.2</ele>
        <time>2020-05-19T05:51:11Z</time>
      </trkpt>
      <trkpt lat="43.59275" lon="5.12644">
        <ele>102.1</ele>
        <time>2020-05-19T05:51:27Z</time>
      </trkpt>
      <trkpt lat="43.5926" lon="5.12627">
        <ele>104</ele>
        <time>2020-05-19T05:51:53Z</time>
      </trkpt>
      <trkpt lat="43.5925" lon="5.12612">
        <ele>105</ele>
        <time>2020-05-19T05:52:22Z</time>
      </trkpt>
      <trkpt lat="43.5924" lon="5.12606">
        <ele>104.5</ele>
        <time>2020-05-19T05:52:33Z</time>
      </trkpt>
      <trkpt lat="43.59206" lon="5.12604">
        <ele>103.3</ele>
        <time>2020-05-19T05:53:01Z</time>
      </trkpt>
      <trkpt lat="43.59184" lon="5.12603">
        <ele>102.6</ele>
        <time>2020-05-19T05:53:30Z</time>
      </trkpt>
      <trkpt lat="43.59163" lon="5.12608">
        <ele>102.1</ele>
        <time>2020-05-19T05:53:50Z</time>
      </trkpt>
      <trkpt lat="43.5915" lon="5.12612">
        <ele>101.8</ele>
        <time>2020-05-19T05:54:08Z</time>
      </trkpt>
      <trkpt lat="43.59149" lon="5.12614">
        <ele>101.9</ele>
        <time>2020-05-19T05:54:10Z</time>
      </trkpt>
      <trkpt lat="43.59126" lon="5.12648">
        <ele>103</ele>
        <time>2020-05-19T05:54:39Z</time>
      </trkpt>
      <trkpt lat="43.5911" lon="5.12675">
        <ele>103.9</ele>
        <time>2020-05-19T05:55:09Z</time>
      </trkpt>
      <trkpt lat="43.59124" lon="5.12698">
        <ele>105.1</ele>
        <time>2020-05-19T05:55:33Z</time>
      </trkpt>
      <trkpt lat="43.59155" lon="5.1274">
        <ele>107.4</ele>
        <time>2020-05-19T05:56:06Z</time>
      </trkpt>
      <trkpt lat="43.59161" lon="5.1276">
        <ele>107.6</ele>
        <time>2020-05-19T05:56:32Z</time>
      </trkpt>
      <trkpt lat="43.59156" lon="5.12763">
        <ele>107.5</ele>
        <time>2020-05-19T05:56:41Z</time>
      </trkpt>
      <trkpt lat="43.59118" lon="5.12786">
        <ele>107</ele>
        <time>2020-05-19T05:57:14Z</time>
      </trkpt>
      <trkpt lat="43.59098" lon="5.12793">
        <ele>107</ele>
        <time>2020-05-19T05:57:34Z</time>
      </trkpt>
      <trkpt lat="43.5909" lon="5.1284">
        <ele>107.8</ele>
        <time>2020-05-19T05:58:04Z</time>
      </trkpt>
      <trkpt lat="43.59091" lon="5.12854">
        <ele>107.7</ele>
        <time>2020-05-19T05:58:33Z</time>
      </trkpt>
      <trkpt lat="43.59093" lon="5.12897">
        <ele>107.4</ele>
        <time>2020-05-19T05:59:01Z</time>
      </trkpt>
      <trkpt lat="43.5909" lon="5.12934">
        <ele>107.5</ele>
        <time>2020-05-19T05:59:24Z</time>
      </trkpt>
      <trkpt lat="43.59085" lon="5.12986">
        <ele>107.8</ele>
        <time>2020-05-19T05:59:55Z</time>
      </trkpt>
      <trkpt lat="43.59084" lon="5.1303">
        <ele>107.9</ele>
        <time>2020-05-19T06:00:21Z</time>
      </trkpt>
      <trkpt lat="43.59077" lon="5.13043">
        <ele>107.6</ele>
        <time>2020-05-19T06:00:31Z</time>
      </trkpt>
      <trkpt lat="43.59077" lon="5.13053">
        <ele>107.6</ele>
        <time>2020-05-19T06:00:37Z</time>
      </trkpt>
      <trkpt lat="43.59086" lon="5.131">
        <ele>108.1</ele>
        <time>2020-05-19T06:01:09Z</time>
      </trkpt>
      <trkpt lat="43.59093" lon="5.13127">
        <ele>107.9</ele>
        <time>2020-05-19T06:01:34Z</time>
      </trkpt>
      <trkpt lat="43.59069" lon="5.13161">
        <ele>109.5</ele>
        <time>2020-05-19T06:02:04Z</time>
      </trkpt>
      <trkpt lat="43.59059" lon="5.13217">
        <ele>110.5</ele>
        <time>2020-05-19T06:02:37Z</time>
      </trkpt>
      <trkpt lat="43.59049" lon="5.13276">
        <ele>112</ele>
        <time>2020-05-19T06:03:11Z</time>
      </trkpt>
      <trkpt lat="43.5905" lon="5.13287">
        <ele>112.3</ele>
        <time>2020-05-19T06:03:41Z</time>
      </trkpt>
      <trkpt lat="43.59052" lon="5.13285">
        <ele>112.2</ele>
        <time>2020-05-19T06:03:44Z</time>
      </trkpt>
      <trkpt lat="43.59062" lon="5.13277">
        <ele>111.9</ele>
        <time>2020-05-19T06:03:55Z</time>
      </trkpt>
      <trkpt lat="43.59065" lon="5.13315">
        <ele>112.8</ele>
        <time>2020-05-19T06:04:21Z</time>
      </trkpt>
      <trkpt lat="43.59074" lon="5.13336">
        <ele>113.2</ele>
        <time>2020-05-19T06:04:50Z</time>
      </trkpt>
      <trkpt lat="43.59082" lon="5.13382">
        <ele>114.7</ele>
        <time>2020-05-19T06:05:19Z</time>
      </trkpt>
      <trkpt lat="43.59079" lon="5.13421">
        <ele>116.2</ele>
        <time>2020-05-19T06:05:49Z</time>
      </trkpt>
      <trkpt lat="43.59072" lon="5.1346">
        <ele>117.4</ele>
        <time>2020-05-19T06:06:16Z</time>
      </trkpt>
      <trkpt lat="43.59061" lon="5.13514">
        <ele>117.9</ele>
        <time>2020-05-19T06:06:51Z</time>
      </trkpt>
      <trkpt lat="43.59075" lon="5.13569">
        <ele>117</ele>
        <time>2020-05-19T06:07:26Z</time>
      </trkpt>
      <trkpt lat="43.59068" lon="5.13605">
        <ele>115.7</ele>
        <time>2020-05-19T06:07:55Z</time>
      </trkpt>
      <trkpt lat="43.59064" lon="5.13623">
        <ele>115</ele>
        <time>2020-05-19T06:08:26Z</time>
      </trkpt>
      <trkpt lat="43.59064" lon="5.13671">
        <ele>113.4</ele>
        <time>2020-05-19T06:08:57Z</time>
      </trkpt>
      <trkpt lat="43.59053" lon="5.13723">
        <ele>111.7</ele>
        <time>2020-05-19T06:09:31Z</time>
      </trkpt>
      <trkpt lat="43.59052" lon="5.13747">
        <ele>111.1</ele>
        <time>2020-05-19T06:09:57Z</time>
      </trkpt>
      <trkpt lat="43.59057" lon="5.13787">
        <ele>110.6</ele>
        <time>2020-05-19T06:10:22Z</time>
      </trkpt>
      <trkpt lat="43.59052" lon="5.13843">
        <ele>109.8</ele>
        <time>2020-05-19T06:10:55Z</time>
      </trkpt>
      <trkpt lat="43.59041" lon="5.13889">
        <ele>108.7</ele>
        <time>2020-05-19T06:11:23Z</time>
      </trkpt>
      <trkpt lat="43.59034" lon="5.13949">
        <ele>108.2</ele>
        <time>2020-05-19T06:11:57Z</time>
      </trkpt>
      <trkpt lat="43.59037" lon="5.14002">
        <ele>108.6</ele>
        <time>2020-05-19T06:12:28Z</time>
      </trkpt>
      <trkpt lat="43.59036" lon="5.14057">
        <ele>109.9</ele>
        <time>2020-05-19T06:13:02Z</time>
      </trkpt>
      <trkpt lat="43.59038" lon="5.14111">
        <ele>111</ele>
        <time>2020-05-19T06:13:36Z</time>
      </trkpt>
      <trkpt lat="43.59032" lon="5.14163">
        <ele>111.9</ele>
        <time>2020-05-19T06:14:07Z</time>
      </trkpt>
      <trkpt lat="43.5903" lon="5.14209">
        <ele>113.5</ele>
        <time>2020-05-19T06:14:36Z</time>
      </trkpt>
      <trkpt lat="43.59029" lon="5.14264">
        <ele>115.6</ele>
        <time>2020-05-19T06:15:09Z</time>
      </trkpt>
      <trkpt lat="43.5903" lon="5.14308">
        <ele>117.6</ele>
        <time>2020-05-19T06:15:43Z</time>
      </trkpt>
      <trkpt lat="43.59032" lon="5.14325">
        <ele>118.4</ele>
        <time>2020-05-19T06:16:15Z</time>
      </trkpt>
      <trkpt lat="43.59031" lon="5.14331">
        <ele>118.7</ele>
        <time>2020-05-19T06:16:26Z</time>
      </trkpt>
      <trkpt lat="43.59031" lon="5.14368">
        <ele>119.1</ele>
        <time>2020-05-19T06:16:51Z</time>
      </trkpt>
      <trkpt lat="43.59028" lon="5.14423">
        <ele>119.7</ele>
        <time>2020-05-19T06:17:24Z</time>
      </trkpt>
      <trkpt lat="43.59022" lon="5.1448">
        <ele>120.3</ele>
        <time>2020-05-19T06:17:57Z</time>
      </trkpt>
      <trkpt lat="43.59019" lon="5.14541">
        <ele>121.8</ele>
        <time>2020-05-19T06:18:36Z</time>
      </trkpt>
      <trkpt lat="43.59018" lon="5.14593">
        <ele>123.3</ele>
        <time>2020-05-19T06:19:06Z</time>
      </trkpt>
      <trkpt lat="43.59016" lon="5.14612">
        <ele>123.8</ele>
        <time>2020-05-19T06:19:20Z</time>
      </trkpt>
      <trkpt lat="43.59015" lon="5.14619">
        <ele>124</ele>
        <time>2020-05-19T06:19:25Z</time>
      </trkpt>
      <trkpt lat="43.59014" lon="5.14643">
        <ele>124.5</ele>
        <time>2020-05-19T06:19:41Z</time>
      </trkpt>
      <trkpt lat="43.59012" lon="5.14693">
        <ele>125.2</ele>
        <time>2020-05-19T06:20:09Z</time>
      </trkpt>
      <trkpt lat="43.59009" lon="5.14725">
        <ele>125.6</ele>
        <time>2020-05-19T06:20:39Z</time>
      </trkpt>
      <trkpt lat="43.59006" lon="5.14737">
        <ele>125.8</ele>
        <time>2020-05-19T06:21:07Z</time>
      </trkpt>
      <trkpt lat="43.59006" lon="5.14742">
        <ele>125.8</ele>
        <time>2020-05-19T06:21:36Z</time>
      </trkpt>
      <trkpt lat="43.58999" lon="5.14787">
        <ele>125.9</ele>
        <time>2020-05-19T06:22:03Z</time>
      </trkpt>
      <trkpt lat="43.58994" lon="5.14843">
        <ele>125.4</ele>
        <time>2020-05-19T06:22:35Z</time>
      </trkpt>
      <trkpt lat="43.58987" lon="5.14888">
        <ele>125</ele>
        <time>2020-05-19T06:23:01Z</time>
      </trkpt>
      <trkpt lat="43.58974" lon="5.14943">
        <ele>123.8</ele>
        <time>2020-05-19T06:23:35Z</time>
      </trkpt>
      <trkpt lat="43.58973" lon="5.14945">
        <ele>123.7</ele>
        <time>2020-05-19T06:24:20Z</time>
      </trkpt>
      <trkpt lat="43.58968" lon="5.14986">
        <ele>123.3</ele>
        <time>2020-05-19T06:24:48Z</time>
      </trkpt>
      <trkpt lat="43.5895" lon="5.15045">
        <ele>122.8</ele>
        <time>2020-05-19T06:25:25Z</time>
      </trkpt>
      <trkpt lat="43.58949" lon="5.15091">
        <ele>123.8</ele>
        <time>2020-05-19T06:25:51Z</time>
      </trkpt>
      <trkpt lat="43.58937" lon="5.15138">
        <ele>124.8</ele>
        <time>2020-05-19T06:26:21Z</time>
      </trkpt>
      <trkpt lat="43.58935" lon="5.15148">
        <ele>125.1</ele>
        <time>2020-05-19T06:26:29Z</time>
      </trkpt>
      <trkpt lat="43.58938" lon="5.15168">
        <ele>125.8</ele>
        <time>2020-05-19T06:26:44Z</time>
      </trkpt>
      <trkpt lat="43.58942" lon="5.15181">
        <ele>126.2</ele>
        <time>2020-05-19T06:26:55Z</time>
      </trkpt>
      <trkpt lat="43.58943" lon="5.15198">
        <ele>126.6</ele>
        <time>2020-05-19T06:27:11Z</time>
      </trkpt>
      <trkpt lat="43.58952" lon="5.15246">
        <ele>128.1</ele>
        <time>2020-05-19T06:27:43Z</time>
      </trkpt>
      <trkpt lat="43.58958" lon="5.15296">
        <ele>127.1</ele>
        <time>2020-05-19T06:28:16Z</time>
      </trkpt>
      <trkpt lat="43.58958" lon="5.15349">
        <ele>125.3</ele>
        <time>2020-05-19T06:28:48Z</time>
      </trkpt>
      <trkpt lat="43.58963" lon="5.15394">
        <ele>123.3</ele>
        <time>2020-05-19T06:29:17Z</time>
      </trkpt>
      <trkpt lat="43.58978" lon="5.15446">
        <ele>123.3</ele>
        <time>2020-05-19T06:29:52Z</time>
      </trkpt>
      <trkpt lat="43.58986" lon="5.15469">
        <ele>124.2</ele>
        <time>2020-05-19T06:30:19Z</time>
      </trkpt>
      <trkpt lat="43.58993" lon="5.15503">
        <ele>125.4</ele>
        <time>2020-05-19T06:30:42Z</time>
      </trkpt>
      <trkpt lat="43.58998" lon="5.15553">
        <ele>125.8</ele>
        <time>2020-05-19T06:31:13Z</time>
      </trkpt>
      <trkpt lat="43.58996" lon="5.1556">
        <ele>125.6</ele>
        <time>2020-05-19T06:31:18Z</time>
      </trkpt>
      <trkpt lat="43.59001" lon="5.15579">
        <ele>125.9</ele>
        <time>2020-05-19T06:31:48Z</time>
      </trkpt>
      <trkpt lat="43.59002" lon="5.15622">
        <ele>124.4</ele>
        <time>2020-05-19T06:32:15Z</time>
      </trkpt>
      <trkpt lat="43.59" lon="5.1567">
        <ele>122.8</ele>
        <time>2020-05-19T06:32:48Z</time>
      </trkpt>
      <trkpt lat="43.59" lon="5.15719">
        <ele>120.4</ele>
        <time>2020-05-19T06:33:20Z</time>
      </trkpt>
      <trkpt lat="43.58994" lon="5.15768">
        <ele>117.5</ele>
        <time>2020-05-19T06:33:52Z</time>
      </trkpt>
      <trkpt lat="43.58991" lon="5.15809">
        <ele>115</ele>
        <time>2020-05-19T06:34:18Z</time>
      </trkpt>
      <trkpt lat="43.58984" lon="5.15842">
        <ele>112.7</ele>
        <time>2020-05-19T06:34:41Z</time>
      </trkpt>
      <trkpt lat="43.5898" lon="5.15879">
        <ele>109.7</ele>
        <time>2020-05-19T06:35:04Z</time>
      </trkpt>
      <trkpt lat="43.58979" lon="5.15885">
        <ele>109.2</ele>
        <time>2020-05-19T06:35:28Z</time>
      </trkpt>
      <trkpt lat="43.58979" lon="5.15923">
        <ele>106.2</ele>
        <time>2020-05-19T06:35:52Z</time>
      </trkpt>
      <trkpt lat="43.58974" lon="5.15959">
        <ele>103.2</ele>
        <time>2020-05-19T06:36:15Z</time>
      </trkpt>
      <trkpt lat="43.58974" lon="5.15964">
        <ele>102.8</ele>
        <time>2020-05-19T06:36:19Z</time>
      </trkpt>
      <trkpt lat="43.5897" lon="5.15978">
        <ele>101.8</ele>
        <time>2020-05-19T06:36:39Z</time>
      </trkpt>
      <trkpt lat="43.58964" lon="5.16022">
        <ele>98.8</ele>
        <time>2020-05-19T06:37:07Z</time>
      </trkpt>
      <trkpt lat="43.58953" lon="5.16062">
        <ele>96.7</ele>
        <time>2020-05-19T06:37:37Z</time>
      </trkpt>
      <trkpt lat="43.58945" lon="5.16106">
        <ele>95</ele>
        <time>2020-05-19T06:38:09Z</time>
      </trkpt>
      <trkpt lat="43.58946" lon="5.16106">
        <ele>94.9</ele>
        <time>2020-05-19T06:38:11Z</time>
      </trkpt>
      <trkpt lat="43.58963" lon="5.16076">
        <ele>95.1</ele>
        <time>2020-05-19T06:38:38Z</time>
      </trkpt>
      <trkpt lat="43.58986" lon="5.16049">
        <ele>95.7</ele>
        <time>2020-05-19T06:39:06Z</time>
      </trkpt>
      <trkpt lat="43.58989" lon="5.16008">
        <ele>98.7</ele>
        <time>2020-05-19T06:39:35Z</time>
      </trkpt>
      <trkpt lat="43.58995" lon="5.15973">
        <ele>101.7</ele>
        <time>2020-05-19T06:39:58Z</time>
      </trkpt>
      <trkpt lat="43.58999" lon="5.15941">
        <ele>104.7</ele>
        <time>2020-05-19T06:40:21Z</time>
      </trkpt>
      <trkpt lat="43.59003" lon="5.15903">
        <ele>107.7</ele>
        <time>2020-05-19T06:40:47Z</time>
      </trkpt>
      <trkpt lat="43.59004" lon="5.15865">
        <ele>110.7</ele>
        <time>2020-05-19T06:41:12Z</time>
      </trkpt>
      <trkpt lat="43.5901" lon="5.15822">
        <ele>113.1</ele>
        <time>2020-05-19T06:41:42Z</time>
      </trkpt>
      <trkpt lat="43.59015" lon="5.15777">
        <ele>114.6</ele>
        <time>2020-05-19T06:42:14Z</time>
      </trkpt>
      <trkpt lat="43.59019" lon="5.1576">
        <ele>114.9</ele>
        <time>2020-05-19T06:42:28Z</time>
      </trkpt>
      <trkpt lat="43.59018" lon="5.15754">
        <ele>115.3</ele>
        <time>2020-05-19T06:42:32Z</time>
      </trkpt>
      <trkpt lat="43.59023" lon="5.15708">
        <ele>116.9</ele>
        <time>2020-05-19T06:43:04Z</time>
      </trkpt>
      <trkpt lat="43.59025" lon="5.15647">
        <ele>119.7</ele>
        <time>2020-05-19T06:43:43Z</time>
      </trkpt>
      <trkpt lat="43.59019" lon="5.15601">
        <ele>122.7</ele>
        <time>2020-05-19T06:44:12Z</time>
      </trkpt>
      <trkpt lat="43.59019" lon="5.1555">
        <ele>123.6</ele>
        <time>2020-05-19T06:44:43Z</time>
      </trkpt>
      <trkpt lat="43.59016" lon="5.15524">
        <ele>124</ele>
        <time>2020-05-19T06:45:07Z</time>
      </trkpt>
      <trkpt lat="43.59004" lon="5.15468">
        <ele>124.8</ele>
        <time>2020-05-19T06:45:41Z</time>
      </trkpt>
      <trkpt lat="43.58991" lon="5.15418">
        <ele>123.6</ele>
        <time>2020-05-19T06:46:12Z</time>
      </trkpt>
      <trkpt lat="43.58979" lon="5.15364">
        <ele>125.5</ele>
        <time>2020-05-19T06:46:44Z</time>
      </trkpt>
      <trkpt lat="43.58978" lon="5.15313">
        <ele>127.6</ele>
        <time>2020-05-19T06:47:14Z</time>
      </trkpt>
      <trkpt lat="43.58973" lon="5.15254">
        <ele>129.3</ele>
        <time>2020-05-19T06:47:48Z</time>
      </trkpt>
      <trkpt lat="43.58969" lon="5.15198">
        <ele>127.7</ele>
        <time>2020-05-19T06:48:19Z</time>
      </trkpt>
      <trkpt lat="43.58965" lon="5.15152">
        <ele>126.3</ele>
        <time>2020-05-19T06:48:45Z</time>
      </trkpt>
      <trkpt lat="43.58969" lon="5.15089">
        <ele>124.7</ele>
        <time>2020-05-19T06:49:19Z</time>
      </trkpt>
      <trkpt lat="43.58977" lon="5.15037">
        <ele>124.4</ele>
        <time>2020-05-19T06:49:49Z</time>
      </trkpt>
      <trkpt lat="43.58985" lon="5.14975">
        <ele>124.9</ele>
        <time>2020-05-19T06:50:23Z</time>
      </trkpt>
      <trkpt lat="43.58998" lon="5.14913">
        <ele>126.7</ele>
        <time>2020-05-19T06:51:00Z</time>
      </trkpt>
      <trkpt lat="43.59009" lon="5.1485">
        <ele>125.7</ele>
        <time>2020-05-19T06:51:34Z</time>
      </trkpt>
      <trkpt lat="43.59014" lon="5.14781">
        <ele>125.4</ele>
        <time>2020-05-19T06:52:11Z</time>
      </trkpt>
      <trkpt lat="43.59029" lon="5.14714">
        <ele>124.5</ele>
        <time>2020-05-19T06:52:47Z</time>
      </trkpt>
      <trkpt lat="43.59025" lon="5.14662">
        <ele>124.1</ele>
        <time>2020-05-19T06:53:16Z</time>
      </trkpt>
      <trkpt lat="43.59031" lon="5.14602">
        <ele>122.8</ele>
        <time>2020-05-19T06:53:48Z</time>
      </trkpt>
      <trkpt lat="43.59035" lon="5.14539">
        <ele>121.2</ele>
        <time>2020-05-19T06:54:23Z</time>
      </trkpt>
      <trkpt lat="43.59042" lon="5.14482">
        <ele>119.9</ele>
        <time>2020-05-19T06:54:53Z</time>
      </trkpt>
      <trkpt lat="43.59044" lon="5.14417">
        <ele>119.5</ele>
        <time>2020-05-19T06:55:28Z</time>
      </trkpt>
      <trkpt lat="43.59049" lon="5.1436">
        <ele>119.3</ele>
        <time>2020-05-19T06:55:58Z</time>
      </trkpt>
      <trkpt lat="43.59048" lon="5.14294">
        <ele>117.2</ele>
        <time>2020-05-19T06:56:34Z</time>
      </trkpt>
      <trkpt lat="43.59043" lon="5.14229">
        <ele>114.2</ele>
        <time>2020-05-19T06:57:10Z</time>
      </trkpt>
      <trkpt lat="43.59059" lon="5.14168">
        <ele>112</ele>
        <time>2020-05-19T06:57:47Z</time>
      </trkpt>
      <trkpt lat="43.59084" lon="5.14167">
        <ele>111.9</ele>
        <time>2020-05-19T06:58:12Z</time>
      </trkpt>
      <trkpt lat="43.59112" lon="5.14155">
        <ele>108.9</ele>
        <time>2020-05-19T06:58:38Z</time>
      </trkpt>
      <trkpt lat="43.59124" lon="5.14121">
        <ele>106.7</ele>
        <time>2020-05-19T06:59:01Z</time>
      </trkpt>
      <trkpt lat="43.59154" lon="5.14123">
        <ele>103.7</ele>
        <time>2020-05-19T06:59:25Z</time>
      </trkpt>
      <trkpt lat="43.59183" lon="5.14163">
        <ele>103.5</ele>
        <time>2020-05-19T06:59:56Z</time>
      </trkpt>
      <trkpt lat="43.59186" lon="5.14221">
        <ele>105.4</ele>
        <time>2020-05-19T07:00:27Z</time>
      </trkpt>
      <trkpt lat="43.59185" lon="5.14302">
        <ele>108.2</ele>
        <time>2020-05-19T07:01:10Z</time>
      </trkpt>
      <trkpt lat="43.59182" lon="5.14318">
        <ele>108.9</ele>
        <time>2020-05-19T07:01:23Z</time>
      </trkpt>
      <trkpt lat="43.59217" lon="5.1432">
        <ele>107.7</ele>
        <time>2020-05-19T07:01:48Z</time>
      </trkpt>
      <trkpt lat="43.59259" lon="5.14322">
        <ele>107</ele>
        <time>2020-05-19T07:02:23Z</time>
      </trkpt>
      <trkpt lat="43.59283" lon="5.14318">
        <ele>108</ele>
        <time>2020-05-19T07:02:45Z</time>
      </trkpt>
      <trkpt lat="43.59287" lon="5.14292">
        <ele>107.3</ele>
        <time>2020-05-19T07:03:03Z</time>
      </trkpt>
      <trkpt lat="43.59282" lon="5.14234">
        <ele>105.1</ele>
        <time>2020-05-19T07:03:34Z</time>
      </trkpt>
      <trkpt lat="43.59272" lon="5.14162">
        <ele>102.6</ele>
        <time>2020-05-19T07:04:11Z</time>
      </trkpt>
      <trkpt lat="43.59285" lon="5.14109">
        <ele>100.3</ele>
        <time>2020-05-19T07:04:43Z</time>
      </trkpt>
      <trkpt lat="43.59315" lon="5.14058">
        <ele>98.4</ele>
        <time>2020-05-19T07:05:18Z</time>
      </trkpt>
      <trkpt lat="43.59324" lon="5.14006">
        <ele>97.1</ele>
        <time>2020-05-19T07:05:49Z</time>
      </trkpt>
      <trkpt lat="43.59326" lon="5.1394">
        <ele>95.6</ele>
        <time>2020-05-19T07:06:23Z</time>
      </trkpt>
      <trkpt lat="43.59339" lon="5.13864">
        <ele>93.7</ele>
        <time>2020-05-19T07:07:03Z</time>
      </trkpt>
      <trkpt lat="43.59344" lon="5.13828">
        <ele>92.8</ele>
        <time>2020-05-19T07:07:33Z</time>
      </trkpt>
      <trkpt lat="43.59346" lon="5.13826">
        <ele>92.8</ele>
        <time>2020-05-19T07:07:36Z</time>
      </trkpt>
      <trkpt lat="43.59361" lon="5.13782">
        <ele>92.1</ele>
        <time>2020-05-19T07:08:05Z</time>
      </trkpt>
      <trkpt lat="43.59336" lon="5.13758">
        <ele>92.1</ele>
        <time>2020-05-19T07:08:31Z</time>
      </trkpt>
      <trkpt lat="43.59288" lon="5.13761">
        <ele>93.6</ele>
        <time>2020-05-19T07:09:06Z</time>
      </trkpt>
      <trkpt lat="43.59251" lon="5.13788">
        <ele>94.5</ele>
        <time>2020-05-19T07:09:37Z</time>
      </trkpt>
      <trkpt lat="43.59211" lon="5.13795">
        <ele>97.5</ele>
        <time>2020-05-19T07:10:09Z</time>
      </trkpt>
      <trkpt lat="43.59186" lon="5.13824">
        <ele>99.4</ele>
        <time>2020-05-19T07:10:38Z</time>
      </trkpt>
      <trkpt lat="43.59183" lon="5.13883">
        <ele>99.4</ele>
        <time>2020-05-19T07:11:10Z</time>
      </trkpt>
      <trkpt lat="43.5917" lon="5.13913">
        <ele>99.9</ele>
        <time>2020-05-19T07:11:31Z</time>
      </trkpt>
      <trkpt lat="43.59154" lon="5.13946">
        <ele>100.9</ele>
        <time>2020-05-19T07:11:56Z</time>
      </trkpt>
      <trkpt lat="43.59139" lon="5.13953">
        <ele>102.3</ele>
        <time>2020-05-19T07:12:12Z</time>
      </trkpt>
      <trkpt lat="43.59111" lon="5.13943">
        <ele>105.3</ele>
        <time>2020-05-19T07:12:37Z</time>
      </trkpt>
      <trkpt lat="43.59077" lon="5.13949">
        <ele>108</ele>
        <time>2020-05-19T07:13:10Z</time>
      </trkpt>
      <trkpt lat="43.59058" lon="5.13954">
        <ele>108.1</ele>
        <time>2020-05-19T07:13:29Z</time>
      </trkpt>
      <trkpt lat="43.59053" lon="5.13964">
        <ele>108.2</ele>
        <time>2020-05-19T07:13:37Z</time>
      </trkpt>
      <trkpt lat="43.5904" lon="5.13957">
        <ele>108.3</ele>
        <time>2020-05-19T07:13:55Z</time>
      </trkpt>
      <trkpt lat="43.59038" lon="5.13948">
        <ele>108.2</ele>
        <time>2020-05-19T07:14:01Z</time>
      </trkpt>
      <trkpt lat="43.59038" lon="5.13902">
        <ele>108.3</ele>
        <time>2020-05-19T07:14:33Z</time>
      </trkpt>
      <trkpt lat="43.59051" lon="5.13853">
        <ele>109.5</ele>
        <time>2020-05-19T07:15:10Z</time>
      </trkpt>
      <trkpt lat="43.59056" lon="5.13792">
        <ele>110.5</ele>
        <time>2020-05-19T07:15:46Z</time>
      </trkpt>
      <trkpt lat="43.59047" lon="5.13737">
        <ele>111.3</ele>
        <time>2020-05-19T07:16:20Z</time>
      </trkpt>
      <trkpt lat="43.59057" lon="5.13694">
        <ele>112.6</ele>
        <time>2020-05-19T07:16:49Z</time>
      </trkpt>
      <trkpt lat="43.59064" lon="5.13662">
        <ele>113.7</ele>
        <time>2020-05-19T07:17:19Z</time>
      </trkpt>
      <trkpt lat="43.59064" lon="5.13658">
        <ele>113.8</ele>
        <time>2020-05-19T07:17:29Z</time>
      </trkpt>
      <trkpt lat="43.59068" lon="5.13608">
        <ele>115.6</ele>
        <time>2020-05-19T07:18:01Z</time>
      </trkpt>
      <trkpt lat="43.59075" lon="5.13563">
        <ele>117.2</ele>
        <time>2020-05-19T07:18:29Z</time>
      </trkpt>
      <trkpt lat="43.59058" lon="5.13506">
        <ele>117.9</ele>
        <time>2020-05-19T07:19:05Z</time>
      </trkpt>
      <trkpt lat="43.59072" lon="5.13458">
        <ele>117.4</ele>
        <time>2020-05-19T07:19:35Z</time>
      </trkpt>
      <trkpt lat="43.5908" lon="5.13394">
        <ele>115.2</ele>
        <time>2020-05-19T07:20:11Z</time>
      </trkpt>
      <trkpt lat="43.59077" lon="5.13346">
        <ele>113.5</ele>
        <time>2020-05-19T07:20:41Z</time>
      </trkpt>
      <trkpt lat="43.59052" lon="5.13316">
        <ele>113</ele>
        <time>2020-05-19T07:21:13Z</time>
      </trkpt>
      <trkpt lat="43.59049" lon="5.13267">
        <ele>111.8</ele>
        <time>2020-05-19T07:21:43Z</time>
      </trkpt>
      <trkpt lat="43.59054" lon="5.13242">
        <ele>111.1</ele>
        <time>2020-05-19T07:22:11Z</time>
      </trkpt>
      <trkpt lat="43.59063" lon="5.13188">
        <ele>110</ele>
        <time>2020-05-19T07:22:42Z</time>
      </trkpt>
      <trkpt lat="43.59073" lon="5.13132">
        <ele>108.8</ele>
        <time>2020-05-19T07:23:15Z</time>
      </trkpt>
      <trkpt lat="43.59075" lon="5.13075">
        <ele>107.6</ele>
        <time>2020-05-19T07:23:49Z</time>
      </trkpt>
      <trkpt lat="43.59078" lon="5.13037">
        <ele>107.7</ele>
        <time>2020-05-19T07:24:14Z</time>
      </trkpt>
      <trkpt lat="43.59086" lon="5.12996">
        <ele>107.8</ele>
        <time>2020-05-19T07:24:41Z</time>
      </trkpt>
      <trkpt lat="43.59083" lon="5.12958">
        <ele>108</ele>
        <time>2020-05-19T07:25:11Z</time>
      </trkpt>
      <trkpt lat="43.59087" lon="5.12949">
        <ele>107.7</ele>
        <time>2020-05-19T07:25:22Z</time>
      </trkpt>
      <trkpt lat="43.59084" lon="5.12921">
        <ele>107.9</ele>
        <time>2020-05-19T07:25:45Z</time>
      </trkpt>
      <trkpt lat="43.59079" lon="5.12914">
        <ele>107.5</ele>
        <time>2020-05-19T07:25:54Z</time>
      </trkpt>
      <trkpt lat="43.59086" lon="5.12861">
        <ele>107.9</ele>
        <time>2020-05-19T07:26:25Z</time>
      </trkpt>
      <trkpt lat="43.59091" lon="5.12808">
        <ele>107.3</ele>
        <time>2020-05-19T07:26:56Z</time>
      </trkpt>
      <trkpt lat="43.59115" lon="5.12786">
        <ele>107</ele>
        <time>2020-05-19T07:27:24Z</time>
      </trkpt>
      <trkpt lat="43.59132" lon="5.12774">
        <ele>107.1</ele>
        <time>2020-05-19T07:27:42Z</time>
      </trkpt>
      <trkpt lat="43.59156" lon="5.12747">
        <ele>107.6</ele>
        <time>2020-05-19T07:28:08Z</time>
      </trkpt>
      <trkpt lat="43.59127" lon="5.12706">
        <ele>105.5</ele>
        <time>2020-05-19T07:28:40Z</time>
      </trkpt>
      <trkpt lat="43.5912" lon="5.12693">
        <ele>104.8</ele>
        <time>2020-05-19T07:28:50Z</time>
      </trkpt>
      <trkpt lat="43.59122" lon="5.12686">
        <ele>104.6</ele>
        <time>2020-05-19T07:28:56Z</time>
      </trkpt>
      <trkpt lat="43.59139" lon="5.12679">
        <ele>104.8</ele>
        <time>2020-05-19T07:29:24Z</time>
      </trkpt>
      <trkpt lat="43.59163" lon="5.12667">
        <ele>104.9</ele>
        <time>2020-05-19T07:29:52Z</time>
      </trkpt>
      <trkpt lat="43.59171" lon="5.12632">
        <ele>103.5</ele>
        <time>2020-05-19T07:30:18Z</time>
      </trkpt>
      <trkpt lat="43.59168" lon="5.12577">
        <ele>100.6</ele>
        <time>2020-05-19T07:30:49Z</time>
      </trkpt>
      <trkpt lat="43.59173" lon="5.12548">
        <ele>98.7</ele>
        <time>2020-05-19T07:31:06Z</time>
      </trkpt>
      <trkpt lat="43.5917" lon="5.12538">
        <ele>97.9</ele>
        <time>2020-05-19T07:31:13Z</time>
      </trkpt>
      <trkpt lat="43.59172" lon="5.12493">
        <ele>94.9</ele>
        <time>2020-05-19T07:31:37Z</time>
      </trkpt>
      <trkpt lat="43.5917" lon="5.12447">
        <ele>92</ele>
        <time>2020-05-19T07:32:04Z</time>
      </trkpt>
      <trkpt lat="43.59168" lon="5.12435">
        <ele>91.2</ele>
        <time>2020-05-19T07:32:13Z</time>
      </trkpt>
      <trkpt lat="43.59165" lon="5.12431">
        <ele>90.8</ele>
        <time>2020-05-19T07:32:19Z</time>
      </trkpt>
      <trkpt lat="43.59172" lon="5.12385">
        <ele>89</ele>
        <time>2020-05-19T07:32:47Z</time>
      </trkpt>
      <trkpt lat="43.59166" lon="5.12341">
        <ele>87.3</ele>
        <time>2020-05-19T07:33:26Z</time>
      </trkpt>
      <trkpt lat="43.59166" lon="5.12342">
        <ele>87.3</ele>
        <time>2020-05-19T07:33:29Z</time>
      </trkpt>
    </trkseg>
  </trk>
</gpx>